createdAt,value
2019-02-14T00:00:26.854Z,15.13
2019-02-14T00:02:56.019Z,15.97
2019-02-14T00:05:25.343Z,16.27
2019-02-14T00:07:54.566Z,17.13
2019-02-14T00:10:23.743Z,14.90
2019-02-14T00:12:52.971Z,14.13
2019-02-14T00:15:22.226Z,16.77
2019-02-14T00:17:51.438Z,15.30
2019-02-14T00:20:20.688Z,15.40
2019-02-14T00:22:49.928Z,15.37
2019-02-14T00:25:19.214Z,15.93
2019-02-14T00:27:48.531Z,14.83
2019-02-14T00:30:17.783Z,17.87
2019-02-14T00:32:47.026Z,16.60
2019-02-14T00:35:23.403Z,17.00
2019-02-14T00:37:47.154Z,15.67
2019-02-14T00:40:16.406Z,15.73
2019-02-14T00:42:45.553Z,15.50
2019-02-14T00:45:14.814Z,17.23
2019-02-14T00:47:44.030Z,16.27
2019-02-14T00:50:13.295Z,15.37
2019-02-14T00:52:42.475Z,16.03
2019-02-14T00:55:11.742Z,16.27
2019-02-14T00:57:41.074Z,15.20
2019-02-14T01:00:10.854Z,18.73
2019-02-14T01:02:40.050Z,17.00
2019-02-14T01:05:09.300Z,16.50
2019-02-14T01:07:38.476Z,15.77
2019-02-14T01:10:07.699Z,18.73
2019-02-14T01:12:36.953Z,16.20
2019-02-14T01:15:07.771Z,16.00
2019-02-14T01:17:37.059Z,15.40
2019-02-14T01:20:06.770Z,14.10
2019-02-14T01:22:35.953Z,15.50
2019-02-14T01:25:05.575Z,15.80
2019-02-14T01:27:34.759Z,15.67
2019-02-14T01:30:04.003Z,15.03
2019-02-14T01:32:33.287Z,15.13
2019-02-14T01:35:02.513Z,16.23
2019-02-14T01:37:31.687Z,17.17
2019-02-14T01:40:00.916Z,15.93
2019-02-14T01:42:30.090Z,16.20
2019-02-14T01:44:59.313Z,17.77
2019-02-14T01:47:28.571Z,17.40
2019-02-14T01:49:57.796Z,16.33
2019-02-14T01:52:26.971Z,14.87
2019-02-14T01:54:56.207Z,16.83
2019-02-14T01:57:25.470Z,16.07
2019-02-14T01:59:54.688Z,19.40
2019-02-14T02:02:23.931Z,17.23
2019-02-14T02:04:53.255Z,16.50
2019-02-14T02:07:22.443Z,16.70
2019-02-14T02:09:51.702Z,14.90
2019-02-14T02:12:21.004Z,15.00
2019-02-14T02:14:50.184Z,18.60
2019-02-14T02:17:19.340Z,16.27
2019-02-14T02:19:48.595Z,17.50
2019-02-14T02:22:17.754Z,15.47
2019-02-14T02:24:46.931Z,16.43
2019-02-14T02:27:16.083Z,15.83
2019-02-14T02:29:45.284Z,14.60
2019-02-14T02:32:14.463Z,16.50
2019-02-14T02:34:43.716Z,16.20
2019-02-14T02:37:12.868Z,16.07
2019-02-14T02:39:42.188Z,14.93
2019-02-14T02:42:11.417Z,18.40
2019-02-14T02:44:40.875Z,15.37
2019-02-14T02:47:10.067Z,15.47
2019-02-14T02:49:39.248Z,15.83
2019-02-14T02:52:08.481Z,16.97
2019-02-14T02:54:37.739Z,16.17
2019-02-14T02:57:07.012Z,15.67
2019-02-14T02:59:36.273Z,17.07
2019-02-14T03:02:05.433Z,15.27
2019-02-14T03:04:34.761Z,15.23
2019-02-14T03:07:03.993Z,14.57
2019-02-14T03:09:33.151Z,13.50
2019-02-14T03:12:02.412Z,15.10
2019-02-14T03:14:31.563Z,15.10
2019-02-14T03:17:00.772Z,15.50
2019-02-14T03:19:30.002Z,15.50
2019-02-14T03:21:59.272Z,15.00
2019-02-14T03:24:28.499Z,15.07
2019-02-14T03:26:57.760Z,17.70
2019-02-14T03:29:26.929Z,15.10
2019-02-14T03:31:56.293Z,14.47
2019-02-14T03:34:25.481Z,14.60
2019-02-14T03:36:54.731Z,14.87
2019-02-14T03:39:23.959Z,15.83
2019-02-14T03:41:53.146Z,15.07
2019-02-14T03:44:22.378Z,14.43
2019-02-14T03:46:51.644Z,13.67
2019-02-14T03:49:20.870Z,13.97
2019-02-14T03:51:50.128Z,14.30
2019-02-14T03:54:19.307Z,14.40
2019-02-14T03:56:48.679Z,22.30
2019-02-14T03:59:17.922Z,15.53
2019-02-14T04:01:47.164Z,14.37
2019-02-14T04:04:16.314Z,13.97
2019-02-14T04:06:45.540Z,15.03
2019-02-14T04:09:14.784Z,14.30
2019-02-14T04:11:44.084Z,14.10
2019-02-14T04:14:13.321Z,14.53
2019-02-14T04:16:42.679Z,17.90
2019-02-14T04:19:11.840Z,17.33
2019-02-14T04:21:41.075Z,16.90
2019-02-14T04:24:10.258Z,16.73
2019-02-14T04:26:39.572Z,15.83
2019-02-14T04:29:08.828Z,14.37
2019-02-14T04:31:37.987Z,14.03
2019-02-14T04:34:07.284Z,13.47
2019-02-14T04:36:36.599Z,13.40
2019-02-14T04:39:07.587Z,12.70
2019-02-14T04:41:36.755Z,12.87
2019-02-14T04:44:06.005Z,12.27
2019-02-14T04:46:35.239Z,13.30
2019-02-14T04:49:04.575Z,12.77
2019-02-14T04:51:33.805Z,13.57
2019-02-14T04:54:03.065Z,13.63
2019-02-14T04:56:32.375Z,13.10
2019-02-14T04:59:01.592Z,13.17
2019-02-14T05:01:30.903Z,13.17
2019-02-14T05:04:00.092Z,13.33
2019-02-14T05:06:29.348Z,13.20
2019-02-14T05:08:58.628Z,13.57
2019-02-14T05:11:27.863Z,12.33
2019-02-14T05:13:57.047Z,12.20
2019-02-14T05:16:26.284Z,16.30
2019-02-14T05:18:55.539Z,14.77
2019-02-14T05:21:24.694Z,13.63
2019-02-14T05:23:53.962Z,14.63
2019-02-14T05:26:23.191Z,14.40
2019-02-14T05:28:52.463Z,14.73
2019-02-14T05:31:21.771Z,14.67
2019-02-14T05:33:51.049Z,14.07
2019-02-14T05:36:20.311Z,13.63
2019-02-14T05:38:49.468Z,12.37
2019-02-14T05:41:18.728Z,12.67
2019-02-14T05:43:47.899Z,14.40
2019-02-14T05:46:17.097Z,14.33
2019-02-14T05:48:46.263Z,13.00
2019-02-14T05:51:15.520Z,14.23
2019-02-14T05:53:44.749Z,13.00
2019-02-14T05:56:14.020Z,12.57
2019-02-14T05:58:43.258Z,14.87
2019-02-14T06:01:14.667Z,14.03
2019-02-14T06:03:43.903Z,13.67
2019-02-14T06:06:13.096Z,13.97
2019-02-14T06:08:42.260Z,12.60
2019-02-14T06:11:11.576Z,12.80
2019-02-14T06:13:40.815Z,13.57
2019-02-14T06:16:09.988Z,11.30
2019-02-14T06:18:39.224Z,11.43
2019-02-14T06:21:08.559Z,13.63
2019-02-14T06:23:37.714Z,12.67
2019-02-14T06:26:06.975Z,13.83
2019-02-14T06:28:37.306Z,14.20
2019-02-14T06:31:06.735Z,13.57
2019-02-14T06:33:35.994Z,13.70
2019-02-14T06:36:05.253Z,13.67
2019-02-14T06:38:34.430Z,12.33
2019-02-14T06:41:03.776Z,13.47
2019-02-14T06:43:33.114Z,15.47
2019-02-14T06:46:02.431Z,15.27
2019-02-14T06:48:31.623Z,13.00
2019-02-14T06:51:00.860Z,13.30
2019-02-14T06:53:30.060Z,11.80
2019-02-14T06:55:59.252Z,12.53
2019-02-14T06:58:28.509Z,13.40
2019-02-14T07:00:57.754Z,13.70
2019-02-14T07:03:26.945Z,11.63
2019-02-14T07:05:56.181Z,12.03
2019-02-14T07:08:25.515Z,11.87
2019-02-14T07:10:54.683Z,11.50
2019-02-14T07:13:23.947Z,12.17
2019-02-14T07:15:53.104Z,12.43
2019-02-14T07:18:22.291Z,11.90
2019-02-14T07:20:51.586Z,12.10
2019-02-14T07:23:20.851Z,11.60
2019-02-14T07:25:50.078Z,13.30
2019-02-14T07:28:19.340Z,13.30
2019-02-14T07:30:48.531Z,12.13
2019-02-14T07:33:17.922Z,12.60
2019-02-14T07:35:47.074Z,12.10
2019-02-14T07:38:16.280Z,13.20
2019-02-14T07:40:45.522Z,12.37
2019-02-14T07:43:14.837Z,11.80
2019-02-14T07:45:44.067Z,11.83
2019-02-14T07:48:13.251Z,11.63
2019-02-14T07:50:42.496Z,13.13
2019-02-14T07:53:11.751Z,13.07
2019-02-14T07:55:41.020Z,14.20
2019-02-14T07:58:10.255Z,14.13
2019-02-14T08:00:39.523Z,14.40
2019-02-14T08:03:08.746Z,15.47
2019-02-14T08:05:38.008Z,15.43
2019-02-14T08:08:07.248Z,15.17
2019-02-14T08:10:36.519Z,14.93
2019-02-14T08:13:05.759Z,16.13
2019-02-14T08:15:34.943Z,14.83
2019-02-14T08:18:04.447Z,15.10
2019-02-14T08:20:33.639Z,16.27
2019-02-14T08:23:02.949Z,16.77
2019-02-14T08:25:32.167Z,17.43
2019-02-14T08:28:01.402Z,17.67
2019-02-14T08:30:30.665Z,17.00
2019-02-14T08:32:59.966Z,16.93
2019-02-14T08:35:29.175Z,18.20
2019-02-14T08:37:58.404Z,16.83
2019-02-14T08:40:27.684Z,16.80
2019-02-14T08:42:58.532Z,17.03
2019-02-14T08:45:28.175Z,20.10
2019-02-14T08:47:57.406Z,21.97
2019-02-14T08:50:26.665Z,19.80
2019-02-14T08:52:55.954Z,17.00
2019-02-14T08:55:25.188Z,13.70
2019-02-14T08:57:54.365Z,12.80
2019-02-14T09:00:23.633Z,13.00
2019-02-14T09:02:52.817Z,12.23
2019-02-14T09:05:22.128Z,12.90
2019-02-14T09:07:54.755Z,15.13
2019-02-14T09:10:22.351Z,16.00
2019-02-14T09:12:51.535Z,16.70
2019-02-14T09:15:20.696Z,16.87
2019-02-14T09:17:49.953Z,18.33
2019-02-14T09:20:19.216Z,14.07
2019-02-14T09:22:48.557Z,17.13
2019-02-14T09:25:18.324Z,14.40
2019-02-14T09:27:47.675Z,15.70
2019-02-14T09:30:16.912Z,16.67
2019-02-14T09:32:46.300Z,13.70
2019-02-14T09:35:15.528Z,14.87
2019-02-14T09:37:44.796Z,15.47
2019-02-14T09:40:14.123Z,13.73
2019-02-14T09:42:43.440Z,16.20
2019-02-14T09:45:13.304Z,16.33
2019-02-14T09:47:42.592Z,15.47
2019-02-14T09:50:12.230Z,19.23
2019-02-14T09:52:42.061Z,16.30
2019-02-14T09:55:12.016Z,13.40
2019-02-14T09:57:41.329Z,16.63
2019-02-14T10:00:13.433Z,13.00
2019-02-14T10:02:42.682Z,16.10
2019-02-14T10:05:12.070Z,14.13
2019-02-14T10:07:41.351Z,15.13
2019-02-14T10:10:13.286Z,13.27
2019-02-14T10:12:42.446Z,15.40
2019-02-14T10:15:11.926Z,13.40
2019-02-14T10:17:41.222Z,16.13
2019-02-14T10:20:12.544Z,15.50
2019-02-14T10:22:41.776Z,12.93
2019-02-14T10:25:11.335Z,12.30
2019-02-14T10:27:40.584Z,11.97
2019-02-14T10:30:14.915Z,11.90
2019-02-14T10:32:44.075Z,14.87
2019-02-14T10:35:13.287Z,13.27
2019-02-14T10:37:42.443Z,13.80
2019-02-14T10:40:12.843Z,12.43
2019-02-14T10:42:42.003Z,11.80
2019-02-14T10:45:13.512Z,13.50
2019-02-14T10:47:42.777Z,18.47
2019-02-14T10:50:12.318Z,11.90
2019-02-14T10:52:41.492Z,12.63
2019-02-14T10:55:11.553Z,11.20
2019-02-14T10:57:40.740Z,12.60
2019-02-14T11:00:16.964Z,9.47
2019-02-14T11:02:46.790Z,12.43
2019-02-14T11:05:16.666Z,9.90
2019-02-14T11:07:45.891Z,11.77
2019-02-14T11:10:15.296Z,10.17
2019-02-14T11:12:44.628Z,9.77
2019-02-14T11:15:15.204Z,10.40
2019-02-14T11:17:44.476Z,12.17
2019-02-14T11:20:14.297Z,10.97
2019-02-14T11:22:43.623Z,10.83
2019-02-14T11:25:15.695Z,11.60
2019-02-14T11:27:44.883Z,11.60
2019-02-14T11:30:14.402Z,12.73
2019-02-14T11:32:43.588Z,11.77
2019-02-14T11:35:13.083Z,13.13
2019-02-14T11:37:42.344Z,13.27
2019-02-14T11:40:12.272Z,12.40
2019-02-14T11:42:41.464Z,12.77
2019-02-14T11:45:12.848Z,12.20
2019-02-14T11:47:42.030Z,11.10
2019-02-14T11:50:11.559Z,11.60
2019-02-14T11:52:40.905Z,10.53
2019-02-14T11:55:10.253Z,9.63
2019-02-14T11:57:39.506Z,11.13
2019-02-14T12:00:15.735Z,12.03
2019-02-14T12:02:44.933Z,12.00
2019-02-14T12:05:14.239Z,11.70
2019-02-14T12:07:43.473Z,12.13
2019-02-14T12:10:13.846Z,11.73
2019-02-14T12:12:43.300Z,10.23
2019-02-14T12:15:12.849Z,10.57
2019-02-14T12:17:42.923Z,10.13
2019-02-14T12:20:12.748Z,9.63
2019-02-14T12:22:46.750Z,8.00
2019-02-14T12:25:13.924Z,9.10
2019-02-14T12:27:43.089Z,9.80
2019-02-14T12:30:14.387Z,10.53
2019-02-14T12:32:43.646Z,10.93
2019-02-14T12:35:12.999Z,8.80
2019-02-14T12:37:42.299Z,9.47
2019-02-14T12:40:11.890Z,10.63
2019-02-14T12:42:41.042Z,9.87
2019-02-14T12:45:20.413Z,9.17
2019-02-14T12:47:42.851Z,9.43
2019-02-14T12:50:12.116Z,9.70
2019-02-14T12:52:41.377Z,9.57
2019-02-14T12:55:10.554Z,9.70
2019-02-14T12:57:39.711Z,8.70
2019-02-14T13:00:13.869Z,9.13
2019-02-14T13:02:43.099Z,8.73
2019-02-14T13:05:12.353Z,9.40
2019-02-14T13:07:41.606Z,9.37
2019-02-14T13:10:11.556Z,9.53
2019-02-14T13:12:40.858Z,9.43
2019-02-14T13:15:12.528Z,9.77
2019-02-14T13:17:41.686Z,9.77
2019-02-14T13:20:11.028Z,9.97
2019-02-14T13:22:40.285Z,9.33
2019-02-14T13:25:10.583Z,9.07
2019-02-14T13:27:39.845Z,8.83
2019-02-14T13:30:11.982Z,9.57
2019-02-14T13:32:41.261Z,9.13
2019-02-14T13:35:10.523Z,8.90
2019-02-14T13:37:40.499Z,9.30
2019-02-14T13:40:09.938Z,9.10
2019-02-14T13:42:39.196Z,9.43
2019-02-14T13:45:10.949Z,9.40
2019-02-14T13:47:40.274Z,9.27
2019-02-14T13:50:10.471Z,9.03
2019-02-14T13:52:39.756Z,8.70
2019-02-14T13:55:09.175Z,9.00
2019-02-14T13:57:38.358Z,7.97
2019-02-14T14:00:11.119Z,8.33
2019-02-14T14:02:40.314Z,8.23
2019-02-14T14:05:09.628Z,8.40
2019-02-14T14:07:40.660Z,8.43
2019-02-14T14:10:10.282Z,8.57
2019-02-14T14:12:39.813Z,8.30
2019-02-14T14:15:09.288Z,8.50
2019-02-14T14:17:38.512Z,9.13
2019-02-14T14:20:08.126Z,8.27
2019-02-14T14:22:37.431Z,8.57
2019-02-14T14:25:06.806Z,8.67
2019-02-14T14:27:36.022Z,8.33
2019-02-14T14:30:06.128Z,8.83
2019-02-14T14:32:35.368Z,8.37
2019-02-14T14:35:05.248Z,8.07
2019-02-14T14:37:34.490Z,8.07
2019-02-14T14:40:03.961Z,8.17
2019-02-14T14:42:55.152Z,8.53
2019-02-14T14:45:34.139Z,7.87
2019-02-14T14:48:03.368Z,7.87
2019-02-14T14:50:32.632Z,7.20
2019-02-14T14:53:01.779Z,7.43
2019-02-14T14:55:30.987Z,7.67
2019-02-14T14:58:00.206Z,7.30
2019-02-14T15:00:29.467Z,7.70
2019-02-14T15:02:58.687Z,6.90
2019-02-14T15:05:27.959Z,6.30
2019-02-14T15:07:57.139Z,6.43
2019-02-14T15:10:26.452Z,6.50
2019-02-14T15:12:55.604Z,6.87
2019-02-14T15:15:24.861Z,6.70
2019-02-14T15:17:54.008Z,6.20
2019-02-14T15:20:23.268Z,6.07
2019-02-14T15:22:52.414Z,7.27
2019-02-14T15:25:21.672Z,6.47
2019-02-14T15:27:50.903Z,5.83
2019-02-14T15:30:20.055Z,6.37
2019-02-14T15:32:49.315Z,6.07
2019-02-14T15:35:18.528Z,6.13
2019-02-14T15:37:47.711Z,6.23
2019-02-14T15:40:16.943Z,6.33
2019-02-14T15:42:46.194Z,6.07
2019-02-14T15:45:15.455Z,5.87
2019-02-14T15:47:44.716Z,6.17
2019-02-14T15:50:13.871Z,6.13
2019-02-14T15:52:43.061Z,7.40
2019-02-14T15:55:12.355Z,6.57
2019-02-14T15:57:42.899Z,6.77
2019-02-14T16:00:12.741Z,7.60
2019-02-14T16:02:42.050Z,6.50
2019-02-14T16:05:11.270Z,7.20
2019-02-14T16:07:41.439Z,6.20
2019-02-14T16:10:18.057Z,6.00
2019-02-14T16:12:45.280Z,6.87
2019-02-14T16:15:12.699Z,7.33
2019-02-14T16:17:42.028Z,7.93
2019-02-14T16:20:11.455Z,8.17
2019-02-14T16:22:42.397Z,9.23
2019-02-14T16:25:11.599Z,7.33
2019-02-14T16:27:40.779Z,9.70
2019-02-14T16:30:10.952Z,7.97
2019-02-14T16:32:40.228Z,9.30
2019-02-14T16:35:09.415Z,9.77
2019-02-14T16:37:38.604Z,11.00
2019-02-14T16:40:08.562Z,8.63
2019-02-14T16:42:37.719Z,10.33
2019-02-14T16:45:07.284Z,8.97
2019-02-14T16:47:36.451Z,10.77
2019-02-14T16:50:06.500Z,24.60
2019-02-14T16:52:35.740Z,27.03
2019-02-14T16:55:04.941Z,18.30
2019-02-14T16:57:34.091Z,10.80
2019-02-14T17:00:03.358Z,8.03
2019-02-14T17:02:32.580Z,6.23
2019-02-14T17:05:01.800Z,6.10
2019-02-14T17:07:31.024Z,6.93
2019-02-14T17:10:00.214Z,5.20
2019-02-14T17:12:29.426Z,5.20
2019-02-14T17:14:58.692Z,4.73
2019-02-14T17:17:28.196Z,5.07
2019-02-14T17:19:57.552Z,3.83
2019-02-14T17:22:26.810Z,5.60
2019-02-14T17:24:56.111Z,3.87
2019-02-14T17:27:25.283Z,4.40
2019-02-14T17:29:54.459Z,5.67
2019-02-14T17:32:23.682Z,5.70
2019-02-14T17:34:52.964Z,5.70
2019-02-14T17:37:22.195Z,3.90
2019-02-14T17:39:51.453Z,4.90
2019-02-14T17:42:20.753Z,3.80
2019-02-14T17:44:49.996Z,4.83
2019-02-14T17:47:19.220Z,4.70
2019-02-14T17:49:48.543Z,4.10
2019-02-14T17:52:17.774Z,5.30
2019-02-14T17:54:47.401Z,5.57
2019-02-14T17:57:16.628Z,5.27
2019-02-14T17:59:45.866Z,4.73
2019-02-14T18:02:16.913Z,4.40
2019-02-14T18:04:46.139Z,4.70
2019-02-14T18:07:15.400Z,5.50
2019-02-14T18:09:44.628Z,4.60
2019-02-14T18:12:13.895Z,7.00
2019-02-14T18:14:43.125Z,5.23
2019-02-14T18:17:12.455Z,6.07
2019-02-14T18:19:41.751Z,4.67
2019-02-14T18:22:11.046Z,6.27
2019-02-14T18:24:40.290Z,6.13
2019-02-14T18:27:09.552Z,6.70
2019-02-14T18:29:38.875Z,9.50
2019-02-14T18:32:08.138Z,9.50
2019-02-14T18:34:37.306Z,5.57
2019-02-14T18:37:06.489Z,5.37
2019-02-14T18:39:35.659Z,5.33
2019-02-14T18:42:04.983Z,5.70
2019-02-14T18:44:34.141Z,4.97
2019-02-14T18:47:03.401Z,4.93
2019-02-14T18:49:32.754Z,5.43
2019-02-14T18:52:01.931Z,4.90
2019-02-14T18:54:31.088Z,5.27
2019-02-14T18:57:00.280Z,6.50
2019-02-14T18:59:29.622Z,5.27
2019-02-14T19:01:58.868Z,4.73
2019-02-14T19:04:28.155Z,4.73
2019-02-14T19:06:57.384Z,5.40
2019-02-14T19:09:26.607Z,4.80
2019-02-14T19:11:55.757Z,4.47
2019-02-14T19:14:25.008Z,4.20
2019-02-14T19:16:54.172Z,4.30
2019-02-14T19:19:23.491Z,4.47
2019-02-14T19:21:52.715Z,4.30
2019-02-14T19:24:21.979Z,4.93
2019-02-14T19:26:51.315Z,4.50
2019-02-14T19:29:20.496Z,4.87
2019-02-14T19:31:49.720Z,4.30
2019-02-14T19:34:19.003Z,4.67
2019-02-14T19:36:48.275Z,5.10
2019-02-14T19:39:17.525Z,5.70
2019-02-14T19:41:46.684Z,4.37
2019-02-14T19:44:15.864Z,4.70
2019-02-14T19:46:45.096Z,5.37
2019-02-14T19:49:14.419Z,5.97
2019-02-14T19:51:43.595Z,5.60
2019-02-14T19:54:12.910Z,4.73
2019-02-14T19:56:42.058Z,5.00
2019-02-14T19:59:11.302Z,4.50
2019-02-14T20:01:40.635Z,4.60
2019-02-14T20:04:09.824Z,4.73
2019-02-14T20:06:38.980Z,4.70
2019-02-14T20:09:08.180Z,5.47
2019-02-14T20:11:37.673Z,4.40
2019-02-14T20:14:07.001Z,4.70
2019-02-14T20:16:36.316Z,7.27
2019-02-14T20:19:05.468Z,5.10
2019-02-14T20:21:34.646Z,5.50
2019-02-14T20:24:03.884Z,4.53
2019-02-14T20:26:33.142Z,5.33
2019-02-14T20:29:02.363Z,5.07
2019-02-14T20:31:31.579Z,5.20
2019-02-14T20:34:00.841Z,4.97
2019-02-14T20:36:30.018Z,5.47
2019-02-14T20:38:59.317Z,5.27
2019-02-14T20:41:28.586Z,5.40
2019-02-14T20:43:57.823Z,4.90
2019-02-14T20:46:27.148Z,5.60
2019-02-14T20:48:56.503Z,4.90
2019-02-14T20:51:25.835Z,5.53
2019-02-14T20:53:55.233Z,5.80
2019-02-14T20:56:24.648Z,5.07
2019-02-14T20:58:54.523Z,5.73
2019-02-14T21:01:23.875Z,5.87
2019-02-14T21:03:53.127Z,5.20
2019-02-14T21:06:22.352Z,4.90
2019-02-14T21:08:51.610Z,5.00
2019-02-14T21:11:20.913Z,5.33
2019-02-14T21:13:50.176Z,6.13
2019-02-14T21:16:19.395Z,5.40
2019-02-14T21:18:49.740Z,5.50
2019-02-14T21:21:19.107Z,5.60
2019-02-14T21:23:48.366Z,6.13
2019-02-14T21:26:17.704Z,6.27
2019-02-14T21:28:47.051Z,8.97
2019-02-14T21:31:16.345Z,5.53
2019-02-14T21:33:45.622Z,5.80
2019-02-14T21:36:14.950Z,6.07
2019-02-14T21:38:44.394Z,6.53
2019-02-14T21:41:13.832Z,5.97
2019-02-14T21:43:43.003Z,5.90
2019-02-14T21:46:12.317Z,7.90
2019-02-14T21:48:41.662Z,5.43
2019-02-14T21:51:10.896Z,5.47
2019-02-14T21:53:40.153Z,5.40
2019-02-14T21:56:09.448Z,4.90
2019-02-14T21:58:38.631Z,4.90
2019-02-14T22:01:08.370Z,4.40
2019-02-14T22:03:37.702Z,4.33
2019-02-14T22:06:06.929Z,4.77
2019-02-14T22:08:36.085Z,5.20
2019-02-14T22:11:05.520Z,4.70
2019-02-14T22:13:34.757Z,4.17
2019-02-14T22:16:04.800Z,3.77
2019-02-14T22:18:34.038Z,4.30
2019-02-14T22:21:03.307Z,4.30
2019-02-14T22:23:32.762Z,4.40
2019-02-14T22:26:02.005Z,4.80
2019-02-14T22:28:31.320Z,4.30
2019-02-14T22:31:00.508Z,5.37
2019-02-14T22:33:29.765Z,4.20
2019-02-14T22:35:59.094Z,4.60
2019-02-14T22:38:28.314Z,3.80
2019-02-14T22:40:57.567Z,3.87
2019-02-14T22:43:26.802Z,4.00
2019-02-14T22:45:55.999Z,4.00
2019-02-14T22:48:25.291Z,3.73
2019-02-14T22:50:54.556Z,3.60
2019-02-14T22:53:23.819Z,3.90
2019-02-14T22:55:53.063Z,3.40
2019-02-14T22:58:22.378Z,3.20
2019-02-14T23:00:58.721Z,3.20
2019-02-14T23:03:27.976Z,3.80
2019-02-14T23:05:57.204Z,3.57
2019-02-14T23:08:26.537Z,3.50
2019-02-14T23:10:55.752Z,3.40
2019-02-14T23:13:25.003Z,3.60
2019-02-14T23:15:54.150Z,3.60
2019-02-14T23:18:23.336Z,3.43
2019-02-14T23:20:52.683Z,4.00
2019-02-14T23:23:21.936Z,3.43
2019-02-14T23:25:51.167Z,3.67
2019-02-14T23:28:20.430Z,3.70
2019-02-14T23:30:49.696Z,3.23
2019-02-14T23:33:18.884Z,3.27
2019-02-14T23:35:48.054Z,3.37
2019-02-14T23:38:17.312Z,3.80
2019-02-14T23:40:46.455Z,3.60
2019-02-14T23:43:15.712Z,4.10
2019-02-14T23:45:44.871Z,3.40
2019-02-14T23:48:14.045Z,3.97
2019-02-14T23:50:43.194Z,3.60
2019-02-14T23:53:12.374Z,4.70
2019-02-14T23:55:41.619Z,3.63
2019-02-14T23:58:10.771Z,3.67
